Time;durP1;ratioP1;P1;durP2;ratioP2;P2;SDS_P1;SDS_P2;PMS_P1;PMS_P2;Temp;Humidity;BMP_temperature;BMP_pressure;BME280_temperature;BME280_humidity;BME280_pressure;Samples;Min_cycle;Max_cycle;Signal;HPM_P1;HPM_P2
2022/07/03 00:04:54;;;;;;;4.27;3.17;;;19.60;99.90;;;;;;10346108;28;20221;-67
2022/07/03 00:09:55;;;;;;;3.73;3.20;;;19.60;99.90;;;;;;10338577;28;20306;-66
2022/07/03 00:14:56;;;;;;;3.73;3.10;;;19.60;99.90;;;;;;10345165;28;20217;-67
2022/07/03 00:19:57;;;;;;;5.77;3.40;;;19.60;99.90;;;;;;10343746;28;20217;-68
2022/07/03 00:25:06;;;;;;;4.37;3.80;;;19.60;99.90;;;;;;10350124;28;20224;-68
2022/07/03 00:30:07;;;;;;;4.53;3.53;;;19.40;99.90;;;;;;10334764;28;20214;-68
2022/07/03 00:35:09;;;;;;;3.33;3.03;;;19.40;99.90;;;;;;10349040;28;20798;-68
2022/07/03 00:40:13;;;;;;;3.73;3.20;;;19.30;99.90;;;;;;10349996;28;20187;-68
2022/07/03 00:45:20;;;;;;;5.07;3.03;;;19.10;99.90;;;;;;10358440;28;20186;-67
2022/07/03 00:50:26;;;;;;;4.60;3.20;;;19.00;99.90;;;;;;10338533;28;20197;-69
2022/07/03 00:55:27;;;;;;;4.17;2.70;;;18.80;99.90;;;;;;10340092;28;20249;-68
2022/07/03 01:00:28;;;;;;;3.77;2.70;;;18.60;99.90;;;;;;10348335;28;20279;-68
2022/07/03 01:05:42;;;;;;;2.97;2.67;;;18.40;99.90;;;;;;10351131;28;21001;-68
2022/07/03 01:11:22;;;;;;;6.33;2.80;;;18.30;99.90;;;;;;10348819;28;20253;-68
2022/07/03 01:16:55;;;;;;;4.40;2.73;;;18.40;99.90;;;;;;10310349;28;20224;-67
2022/07/03 01:22:18;;;;;;;3.10;2.53;;;18.30;99.90;;;;;;10338439;28;20213;-68
2022/07/03 01:27:29;;;;;;;3.30;2.57;;;18.30;99.90;;;;;;10317224;28;20906;-68
2022/07/03 01:32:37;;;;;;;3.43;2.87;;;18.30;99.90;;;;;;10336644;28;20232;-69
2022/07/03 01:37:40;;;;;;;6.10;3.03;;;18.20;99.90;;;;;;10336507;28;20223;-70
2022/07/03 01:42:43;;;;;;;2.87;2.67;;;18.20;99.90;;;;;;10350022;28;20214;-69
2022/07/03 01:47:48;;;;;;;4.67;2.90;;;18.20;99.90;;;;;;10339431;28;20222;-67
2022/07/03 01:52:49;;;;;;;3.20;2.40;;;18.10;99.90;;;;;;10348348;28;20221;-68
2022/07/03 01:57:51;;;;;;;4.57;2.47;;;18.10;99.90;;;;;;10347726;28;20225;-67
2022/07/03 02:03:04;;;;;;;3.23;2.60;;;18.10;99.90;;;;;;10355576;28;20243;-67
2022/07/03 02:08:16;;;;;;;4.33;2.70;;;18.00;99.90;;;;;;10343668;28;20230;-67
2022/07/03 02:13:22;;;;;;;3.33;2.40;;;17.90;99.90;;;;;;10339026;28;20260;-67
2022/07/03 02:18:27;;;;;;;6.77;2.90;;;17.90;99.90;;;;;;10348163;28;20232;-68
2022/07/03 02:23:49;;;;;;;6.43;2.90;;;17.80;99.90;;;;;;10345102;28;20217;-68
2022/07/03 02:29:02;;;;;;;3.33;2.63;;;17.80;99.90;;;;;;10347098;28;20304;-68
2022/07/03 02:34:04;;;;;;;4.93;2.90;;;17.70;99.90;;;;;;10348416;28;20327;-69
2022/07/03 02:39:14;;;;;;;3.73;2.80;;;17.60;99.90;;;;;;10332231;28;20226;-68
2022/07/03 02:44:25;;;;;;;4.73;2.40;;;17.60;99.90;;;;;;10354005;28;20240;-68
2022/07/03 02:49:48;;;;;;;5.17;2.63;;;17.50;99.90;;;;;;10335981;28;20229;-68
2022/07/03 02:54:52;;;;;;;5.50;3.13;;;17.40;99.90;;;;;;10349063;28;20228;-68
2022/07/03 03:00:01;;;;;;;2.67;2.47;;;17.30;99.90;;;;;;10350841;28;20239;-68
2022/07/03 03:05:26;;;;;;;4.20;2.47;;;17.30;99.90;;;;;;10337900;28;20228;-68
2022/07/03 03:10:27;;;;;;;2.50;2.30;;;17.20;99.90;;;;;;10324474;28;20649;-68
2022/07/03 03:15:30;;;;;;;2.97;2.23;;;17.10;99.90;;;;;;10343731;28;20225;-68
2022/07/03 03:20:34;;;;;;;4.57;2.17;;;17.00;99.90;;;;;;10344869;28;20253;-68
2022/07/03 03:25:35;;;;;;;7.17;2.30;;;17.00;99.90;;;;;;10339759;28;20267;-69
2022/07/03 03:30:36;;;;;;;3.80;2.13;;;17.10;99.90;;;;;;10354560;28;20367;-68
2022/07/03 03:35:38;;;;;;;2.37;2.17;;;17.00;99.90;;;;;;10347734;28;20311;-68
2022/07/03 03:40:44;;;;;;;3.10;2.20;;;17.10;99.90;;;;;;10312593;28;20224;-68
2022/07/03 03:45:45;;;;;;;6.73;2.43;;;17.10;99.90;;;;;;10349111;28;20229;-68
2022/07/03 03:50:49;;;;;;;2.47;2.27;;;17.00;99.90;;;;;;10348950;28;20240;-69
2022/07/03 03:56:05;;;;;;;3.13;1.77;;;17.00;99.90;;;;;;10331258;28;20235;-67
2022/07/03 04:01:07;;;;;;;2.57;2.17;;;17.10;99.90;;;;;;10349060;28;21053;-67
2022/07/03 04:06:08;;;;;;;2.20;2.10;;;17.10;99.90;;;;;;10355354;28;20254;-68
2022/07/03 04:11:08;;;;;;;2.30;2.10;;;17.10;99.90;;;;;;10346938;28;20236;-67
2022/07/03 04:16:09;;;;;;;2.30;2.10;;;17.20;99.90;;;;;;10348285;28;20308;-67
2022/07/03 04:21:10;;;;;;;2.57;1.93;;;17.40;99.90;;;;;;10339803;28;20234;-68
2022/07/03 04:26:10;;;;;;;2.40;2.00;;;17.60;99.90;;;;;;10352525;28;20276;-67
2022/07/03 04:31:11;;;;;;;3.93;2.00;;;17.80;99.90;;;;;;10358732;28;20324;-68
2022/07/03 04:36:12;;;;;;;1.97;1.87;;;18.00;99.90;;;;;;10340260;28;20313;-68
2022/07/03 04:41:12;;;;;;;3.30;1.73;;;18.40;99.90;;;;;;10358514;28;20311;-68
2022/07/03 04:46:15;;;;;;;3.97;2.20;;;19.40;99.90;;;;;;10325189;28;20240;-68
2022/07/03 04:51:16;;;;;;;6.67;2.50;;;19.70;99.90;;;;;;10351349;28;20842;-68
2022/07/03 04:56:17;;;;;;;3.97;2.63;;;19.50;99.90;;;;;;10337678;28;20559;-68
2022/07/03 05:01:17;;;;;;;3.83;2.67;;;19.40;99.90;;;;;;10319105;28;20272;-69
2022/07/03 05:06:18;;;;;;;2.67;2.43;;;19.40;99.90;;;;;;10351640;28;20226;-69
2022/07/03 05:11:18;;;;;;;2.50;2.23;;;20.40;99.90;;;;;;10350101;28;20270;-69
2022/07/03 05:16:19;;;;;;;4.57;2.10;;;23.80;99.90;;;;;;10340284;28;20224;-69
2022/07/03 05:21:20;;;;;;;4.87;2.17;;;26.70;97.00;;;;;;10359281;28;20359;-69
2022/07/03 05:26:21;;;;;;;4.10;2.30;;;29.00;84.70;;;;;;10328027;28;20279;-69
2022/07/03 05:31:21;;;;;;;5.60;2.10;;;30.60;68.60;;;;;;10353052;28;20328;-69
2022/07/03 05:36:22;;;;;;;2.90;1.90;;;31.50;60.30;;;;;;10348327;28;20734;-70
2022/07/03 05:41:22;;;;;;;3.23;2.10;;;32.50;56.30;;;;;;10328664;28;20307;-70
2022/07/03 05:46:23;;;;;;;3.03;1.90;;;33.20;53.20;;;;;;10351418;28;20819;-70
2022/07/03 05:51:24;;;;;;;2.53;1.60;;;34.10;50.20;;;;;;10321718;28;20229;-70
2022/07/03 05:56:25;;;;;;;3.13;1.60;;;34.80;48.40;;;;;;10349030;28;20967;-68
2022/07/03 06:01:26;;;;;;;2.03;1.67;;;35.40;46.90;;;;;;10346639;28;20240;-69
2022/07/03 06:06:26;;;;;;;3.50;1.37;;;35.60;45.30;;;;;;10331630;28;20269;-67
2022/07/03 06:11:27;;;;;;;4.00;1.30;;;36.10;45.30;;;;;;10346492;28;20689;-67
2022/07/03 06:16:27;;;;;;;2.47;1.20;;;36.50;44.00;;;;;;10348567;28;20222;-68
2022/07/03 06:21:28;;;;;;;2.80;1.23;;;36.70;42.60;;;;;;10334881;28;20226;-69
2022/07/03 06:26:29;;;;;;;2.33;1.13;;;37.20;42.40;;;;;;10347658;28;20229;-69
2022/07/03 06:31:31;;;;;;;2.27;1.00;;;37.30;41.20;;;;;;10329853;28;20320;-69
2022/07/03 06:36:32;;;;;;;1.97;1.10;;;37.70;40.10;;;;;;10320388;28;20242;-68
2022/07/03 06:41:32;;;;;;;2.23;1.00;;;38.10;39.30;;;;;;10331727;28;20225;-69
2022/07/03 06:46:33;;;;;;;3.80;1.20;;;38.00;38.90;;;;;;10338461;28;20222;-68
2022/07/03 06:51:33;;;;;;;3.13;1.10;;;38.50;38.90;;;;;;10344962;28;20236;-68
2022/07/03 06:56:34;;;;;;;2.70;1.27;;;38.70;37.20;;;;;;10314371;28;20249;-71
2022/07/03 07:01:34;;;;;;;3.90;1.47;;;39.30;36.70;;;;;;10329210;28;20312;-69
2022/07/03 07:06:35;;;;;;;1.73;1.23;;;39.70;36.20;;;;;;10324974;28;20213;-69
2022/07/03 07:11:36;;;;;;;1.87;1.27;;;40.00;34.70;;;;;;10326182;28;20279;-68
2022/07/03 07:16:37;;;;;;;2.30;1.30;;;39.80;34.70;;;;;;10338968;28;20221;-68
2022/07/03 07:21:37;;;;;;;2.70;1.20;;;39.90;34.50;;;;;;10344271;28;20316;-70
2022/07/03 07:26:38;;;;;;;3.00;1.10;;;40.70;34.00;;;;;;10342146;28;20233;-69
2022/07/03 07:31:39;;;;;;;1.67;1.17;;;41.40;33.40;;;;;;10351670;28;20928;-69
2022/07/03 07:36:39;;;;;;;1.37;1.10;;;41.30;32.70;;;;;;10339555;28;20220;-68
2022/07/03 07:41:40;;;;;;;2.60;1.50;;;41.50;33.50;;;;;;10340062;28;20295;-69
2022/07/03 07:46:41;;;;;;;3.07;1.27;;;42.10;32.10;;;;;;10350248;28;20220;-69
2022/07/03 07:51:41;;;;;;;2.53;1.63;;;43.00;31.20;;;;;;10337043;28;20233;-69
2022/07/03 07:56:42;;;;;;;1.33;1.27;;;43.10;30.70;;;;;;10342986;28;20747;-69
2022/07/03 08:07:02;;;;;;;2.65;1.48;;;43.00;29.50;;;;;;10341693;28;20222;-70
2022/07/03 08:12:03;;;;;;;1.73;1.15;;;43.00;30.00;;;;;;10336760;28;20229;-69
2022/07/03 08:17:05;;;;;;;2.35;1.40;;;43.20;30.00;;;;;;10337781;28;20669;-68
2022/07/03 08:22:06;;;;;;;2.53;1.50;;;43.20;29.40;;;;;;10327398;28;20239;-69
2022/07/03 08:27:10;;;;;;;1.40;1.30;;;43.60;29.50;;;;;;10315730;28;20313;-69
2022/07/03 08:32:10;;;;;;;2.13;1.40;;;44.20;28.50;;;;;;10351292;28;20635;-69
2022/07/03 08:37:11;;;;;;;2.65;2.42;;;44.70;28.00;;;;;;10332504;28;20214;-69
2022/07/03 08:42:12;;;;;;;1.42;1.30;;;44.40;28.30;;;;;;10342136;28;20233;-68
2022/07/03 08:47:13;;;;;;;2.85;1.40;;;45.20;27.90;;;;;;10335412;28;20229;-69
2022/07/03 08:52:14;;;;;;;1.50;1.40;;;45.50;27.20;;;;;;10353990;28;20589;-67
2022/07/03 08:57:16;;;;;;;1.45;1.30;;;46.00;27.20;;;;;;10341964;28;20232;-70
2022/07/03 09:02:17;;;;;;;1.63;1.52;;;46.00;26.50;;;;;;10358359;28;20692;-70
2022/07/03 09:07:19;;;;;;;4.65;1.30;;;46.10;26.90;;;;;;10330531;28;20217;-70
2022/07/03 09:12:20;;;;;;;1.38;1.27;;;45.40;26.70;;;;;;10317118;28;20630;-70
2022/07/03 09:17:21;;;;;;;3.88;1.30;;;45.80;26.00;;;;;;10335100;28;20213;-70
2022/07/03 09:22:30;;;;;;;2.35;1.38;;;45.90;26.10;;;;;;10332001;28;20582;-70
2022/07/03 09:27:31;;;;;;;1.88;1.38;;;46.10;26.10;;;;;;10350122;28;20657;-69
2022/07/03 09:32:52;;;;;;;2.03;1.42;;;46.30;26.40;;;;;;10343597;28;20214;-70
2022/07/03 09:37:55;;;;;;;4.90;1.30;;;46.30;25.50;;;;;;10345337;28;20237;-72
2022/07/03 09:43:07;;;;;;;1.88;1.00;;;45.40;25.50;;;;;;10323740;28;20217;-70
2022/07/03 09:48:21;;;;;;;2.55;1.30;;;45.20;26.80;;;;;;10333425;28;20214;-70
2022/07/03 09:53:22;;;;;;;4.35;1.63;;;45.90;25.90;;;;;;10315149;28;20214;-73
2022/07/03 09:58:22;;;;;;;1.92;1.60;;;46.40;25.60;;;;;;10326157;28;20218;-70
2022/07/03 10:03:25;;;;;;;1.25;1.15;;;46.60;25.70;;;;;;10344304;28;20236;-71
2022/07/03 10:08:27;;;;;;;1.55;1.40;;;46.30;25.50;;;;;;10348784;28;20740;-73
2022/07/03 10:13:33;;;;;;;1.38;1.05;;;46.00;25.70;;;;;;10332400;28;20256;-70
2022/07/03 10:18:37;;;;;;;5.22;1.20;;;45.00;26.20;;;;;;10349125;28;20760;-71
2022/07/03 10:23:38;;;;;;;3.38;1.00;;;45.20;26.10;;;;;;10343088;28;20217;-71
2022/07/03 10:28:40;;;;;;;5.15;1.25;;;45.00;26.50;;;;;;10340535;28;20225;-72
2022/07/03 10:33:42;;;;;;;2.45;1.33;;;45.10;26.40;;;;;;10342033;28;20917;-71
2022/07/03 10:38:48;;;;;;;12.23;2.40;;;44.90;26.30;;;;;;10337948;28;20214;-70
2022/07/03 10:49:11;;;;;;;4.10;1.42;;;45.00;26.10;;;;;;10344842;28;20217;-70
2022/07/03 10:54:21;;;;;;;3.20;1.20;;;42.00;28.10;;;;;;10338293;28;20260;-70
2022/07/03 10:59:22;;;;;;;2.93;1.20;;;41.40;29.30;;;;;;10338468;28;20711;-70
2022/07/03 11:04:22;;;;;;;2.58;1.33;;;43.20;27.70;;;;;;10344680;28;20218;-70
2022/07/03 11:09:26;;;;;;;3.63;1.23;;;44.70;26.00;;;;;;10347121;28;20785;-70
2022/07/03 11:14:29;;;;;;;2.47;1.13;;;44.00;26.10;;;;;;10332432;28;20231;-70
2022/07/03 11:19:30;;;;;;;1.35;0.95;;;43.50;26.40;;;;;;10338066;28;20217;-70
2022/07/03 11:24:44;;;;;;;4.50;1.17;;;44.20;25.70;;;;;;10344282;28;20705;-70
2022/07/03 11:29:50;;;;;;;1.30;1.00;;;43.60;26.50;;;;;;10348822;28;20226;-72
2022/07/03 11:34:51;;;;;;;2.70;1.10;;;43.90;26.00;;;;;;10323879;28;20230;-70
2022/07/03 11:39:56;;;;;;;3.37;0.63;;;42.90;25.50;;;;;;10334491;28;20214;-69
2022/07/03 11:44:58;;;;;;;0.87;0.50;;;41.20;26.40;;;;;;10311722;28;20222;-71
2022/07/03 11:49:59;;;;;;;4.07;0.93;;;38.30;29.60;;;;;;10326886;28;20225;-70
2022/07/03 11:54:59;;;;;;;2.83;0.90;;;36.40;31.40;;;;;;10322549;28;20233;-70
2022/07/03 12:00:04;;;;;;;2.23;1.00;;;35.40;32.40;;;;;;10335291;28;20229;-70
2022/07/03 12:05:14;;;;;;;1.60;0.60;;;34.50;33.50;;;;;;10329852;28;20225;-70
2022/07/03 12:10:15;;;;;;;2.43;1.10;;;33.30;33.80;;;;;;10326648;28;20182;-69
2022/07/03 12:15:16;;;;;;;3.20;1.00;;;32.80;36.00;;;;;;10337031;28;20297;-69
2022/07/03 12:20:17;;;;;;;1.60;0.90;;;32.70;36.50;;;;;;10341884;28;20276;-68
2022/07/03 12:25:18;;;;;;;1.43;0.77;;;32.40;36.00;;;;;;10343685;28;20214;-69
2022/07/03 12:30:25;;;;;;;2.13;0.80;;;32.30;36.60;;;;;;10333745;28;20217;-70
2022/07/03 12:35:27;;;;;;;3.63;1.07;;;32.10;37.30;;;;;;10347738;28;20793;-68
2022/07/03 12:40:27;;;;;;;2.30;1.20;;;31.90;37.50;;;;;;10354914;28;20857;-69
2022/07/03 12:45:29;;;;;;;1.00;0.70;;;31.80;37.60;;;;;;10324728;28;20230;-69
2022/07/03 12:50:52;;;;;;;3.17;0.90;;;31.60;36.60;;;;;;10338202;28;20233;-68
2022/07/03 12:55:52;;;;;;;3.50;1.00;;;31.50;38.30;;;;;;10326946;28;20222;-69
2022/07/03 13:00:53;;;;;;;2.30;0.90;;;31.70;38.70;;;;;;10343420;28;20222;-68
2022/07/03 13:05:54;;;;;;;2.33;0.70;;;31.80;37.50;;;;;;10352469;28;20225;-69
2022/07/03 13:10:59;;;;;;;1.93;0.63;;;31.80;38.00;;;;;;10340485;28;20681;-68
2022/07/03 13:15:59;;;;;;;3.63;1.23;;;32.00;37.20;;;;;;10346264;28;20936;-68
2022/07/03 13:21:00;;;;;;;4.87;1.10;;;31.80;38.10;;;;;;10347032;28;20309;-68
2022/07/03 13:26:01;;;;;;;2.53;0.90;;;31.80;38.10;;;;;;10336312;28;20597;-70
2022/07/03 13:31:01;;;;;;;1.70;1.00;;;31.80;37.80;;;;;;10313570;28;20693;-68
2022/07/03 13:36:02;;;;;;;1.33;1.23;;;31.60;37.30;;;;;;10345366;28;20254;-70
2022/07/03 13:41:02;;;;;;;3.27;0.70;;;31.50;37.80;;;;;;10345907;28;20217;-70
2022/07/03 13:46:03;;;;;;;6.70;1.00;;;31.40;38.50;;;;;;10348183;28;20248;-69
2022/07/03 13:51:04;;;;;;;1.00;0.60;;;31.50;38.20;;;;;;10326770;28;20942;-70
2022/07/03 13:56:05;;;;;;;1.50;0.90;;;31.50;37.70;;;;;;10348437;28;20633;-70
2022/07/03 14:01:06;;;;;;;2.50;0.80;;;31.50;37.30;;;;;;10330560;28;20210;-69
2022/07/03 14:06:08;;;;;;;1.60;0.97;;;31.60;36.90;;;;;;10335927;28;20269;-69
2022/07/03 14:11:11;;;;;;;2.00;0.80;;;31.60;37.30;;;;;;10340426;28;20250;-68
2022/07/03 14:16:12;;;;;;;1.23;1.00;;;31.60;36.70;;;;;;10330044;28;20218;-70
2022/07/03 14:21:13;;;;;;;2.53;1.30;;;31.60;37.50;;;;;;10350950;28;20712;-71
2022/07/03 14:26:13;;;;;;;2.17;1.00;;;31.60;37.20;;;;;;10335783;28;20229;-70
2022/07/03 14:36:33;;;;;;;2.00;0.80;;;31.60;37.20;;;;;;10333416;28;20820;-70
2022/07/03 14:41:34;;;;;;;1.33;0.87;;;31.70;36.80;;;;;;10345828;28;20261;-69
2022/07/03 14:46:34;;;;;;;2.57;0.90;;;31.70;36.90;;;;;;10313366;28;20253;-70
2022/07/03 14:51:35;;;;;;;4.73;1.00;;;31.50;37.40;;;;;;10309090;28;20229;-69
2022/07/03 14:56:43;;;;;;;2.47;0.83;;;31.30;37.60;;;;;;10344589;28;20365;-70
2022/07/03 15:01:52;;;;;;;2.80;0.93;;;31.30;37.90;;;;;;10334433;28;20363;-69
2022/07/03 15:06:53;;;;;;;2.87;1.03;;;31.40;37.30;;;;;;10344053;28;20226;-70
2022/07/03 15:17:15;;;;;;;2.10;1.00;;;31.00;37.70;;;;;;10348525;28;20220;-69
2022/07/03 15:22:19;;;;;;;1.87;0.77;;;31.30;37.90;;;;;;10323025;28;20217;-71
2022/07/03 15:27:22;;;;;;;4.77;0.90;;;31.30;37.50;;;;;;10336433;28;20218;-70
2022/07/03 15:32:23;;;;;;;2.40;1.20;;;31.20;37.40;;;;;;10322387;28;20365;-70
2022/07/03 15:37:33;;;;;;;2.43;1.00;;;31.10;37.90;;;;;;10344867;28;20363;-70
2022/07/03 15:42:46;;;;;;;1.00;0.90;;;30.90;36.90;;;;;;10321048;28;20221;-70
2022/07/03 15:47:56;;;;;;;3.97;0.80;;;31.00;37.80;;;;;;10347519;28;20734;-70
2022/07/03 15:52:59;;;;;;;6.70;0.90;;;31.00;38.40;;;;;;10338044;28;20232;-70
2022/07/03 15:58:05;;;;;;;3.90;1.00;;;30.90;38.50;;;;;;10343565;28;20237;-70
2022/07/03 16:03:28;;;;;;;2.07;0.70;;;31.00;38.90;;;;;;10326584;28;20640;-70
2022/07/03 16:08:31;;;;;;;1.93;0.60;;;30.90;37.60;;;;;;10347011;28;20244;-70
2022/07/03 16:13:34;;;;;;;1.13;0.83;;;30.70;38.10;;;;;;10347898;28;20252;-70
2022/07/03 16:18:43;;;;;;;5.20;1.10;;;30.60;38.50;;;;;;10349869;28;20233;-70
2022/07/03 16:23:45;;;;;;;1.57;1.00;;;30.50;38.90;;;;;;10335295;28;20233;-70
2022/07/03 16:28:46;;;;;;;1.73;0.70;;;30.70;38.80;;;;;;10349302;28;20218;-68
2022/07/03 16:33:55;;;;;;;1.87;0.80;;;30.80;37.50;;;;;;10350661;28;20229;-70
2022/07/03 16:39:01;;;;;;;0.90;0.90;;;30.80;37.90;;;;;;10330637;28;20224;-70
2022/07/03 16:44:05;;;;;;;2.40;0.80;;;30.80;38.00;;;;;;10351654;28;20206;-70
2022/07/03 16:49:08;;;;;;;1.90;0.67;;;30.60;37.50;;;;;;10340967;28;20220;-70
2022/07/03 16:54:09;;;;;;;2.27;0.80;;;30.40;38.10;;;;;;10352155;28;20237;-70
2022/07/03 16:59:12;;;;;;;3.10;1.10;;;30.30;38.20;;;;;;10340682;28;20214;-69
2022/07/03 17:04:14;;;;;;;1.70;0.90;;;30.10;38.50;;;;;;10347199;28;20218;-70
2022/07/03 17:09:16;;;;;;;4.57;1.40;;;30.00;39.10;;;;;;10342714;28;20222;-70
2022/07/03 17:14:16;;;;;;;0.97;0.70;;;29.90;38.60;;;;;;10342468;28;20232;-70
2022/07/03 17:19:22;;;;;;;2.80;0.80;;;29.80;38.80;;;;;;10341895;28;20280;-69
2022/07/03 17:24:28;;;;;;;1.77;0.70;;;29.60;38.80;;;;;;10345091;28;20210;-70
2022/07/03 17:29:53;;;;;;;2.97;0.80;;;29.50;39.10;;;;;;10334323;28;20369;-70
2022/07/03 17:34:53;;;;;;;1.77;0.90;;;29.40;39.30;;;;;;10334532;28;20269;-69
2022/07/03 17:39:54;;;;;;;2.90;0.60;;;29.30;39.80;;;;;;10336543;28;20357;-70
2022/07/03 17:44:56;;;;;;;1.13;0.70;;;29.20;40.00;;;;;;10336312;28;20218;-69
2022/07/03 17:49:59;;;;;;;1.63;0.70;;;29.00;39.80;;;;;;10338653;28;20311;-70
2022/07/03 17:55:01;;;;;;;1.90;0.77;;;28.80;40.00;;;;;;10354062;28;20614;-69
2022/07/03 18:00:11;;;;;;;3.40;0.93;;;28.70;40.30;;;;;;10345891;28;20218;-68
2022/07/03 18:05:13;;;;;;;1.87;0.83;;;28.50;40.60;;;;;;10338699;28;20634;-70
2022/07/03 18:10:21;;;;;;;6.77;0.77;;;28.50;41.20;;;;;;10333792;28;20192;-71
2022/07/03 18:15:36;;;;;;;2.53;0.77;;;28.40;41.20;;;;;;10321185;28;20212;-70
2022/07/03 18:20:44;;;;;;;1.27;0.70;;;28.30;41.80;;;;;;10325823;28;20225;-69
2022/07/03 18:25:48;;;;;;;2.90;0.80;;;28.10;42.00;;;;;;10355982;28;20225;-71
2022/07/03 18:30:51;;;;;;;1.57;1.07;;;28.00;42.20;;;;;;10345360;28;20218;-70
2022/07/03 18:35:52;;;;;;;1.43;0.70;;;27.80;42.80;;;;;;10351266;28;20249;-70
2022/07/03 18:40:52;;;;;;;2.00;0.90;;;27.70;43.60;;;;;;10323764;28;20221;-70
2022/07/03 18:45:53;;;;;;;2.97;0.90;;;27.50;44.00;;;;;;10340027;28;20276;-71
2022/07/03 18:51:13;;;;;;;1.90;1.07;;;27.40;44.50;;;;;;10343550;28;20295;-70
2022/07/03 18:56:41;;;;;;;2.50;1.00;;;27.20;45.00;;;;;;10345360;28;20319;-70
2022/07/03 19:01:47;;;;;;;1.40;1.00;;;27.00;45.40;;;;;;10325804;28;20216;-70
2022/07/03 19:06:55;;;;;;;2.43;1.30;;;26.80;46.10;;;;;;10352917;28;20228;-71
2022/07/03 19:12:12;;;;;;;2.10;1.00;;;26.70;46.50;;;;;;10338308;28;20293;-70
2022/07/03 19:17:14;;;;;;;2.00;0.90;;;26.70;46.90;;;;;;10331502;28;20300;-70
2022/07/03 19:22:14;;;;;;;3.37;1.17;;;26.70;47.00;;;;;;10347197;28;20233;-69
2022/07/03 19:27:15;;;;;;;2.83;1.10;;;26.70;47.70;;;;;;10343654;28;20238;-70
2022/07/03 19:32:16;;;;;;;1.40;0.93;;;26.60;49.10;;;;;;10332324;28;20233;-70
2022/07/03 19:37:17;;;;;;;3.93;1.40;;;26.60;50.00;;;;;;10347093;28;20629;-70
2022/07/03 19:42:18;;;;;;;4.00;1.30;;;26.40;51.50;;;;;;10321676;28;20259;-71
2022/07/03 19:47:22;;;;;;;8.20;1.20;;;26.20;52.40;;;;;;10339023;28;20225;-71
2022/07/03 19:52:23;;;;;;;4.50;1.40;;;26.00;54.10;;;;;;10330032;28;20226;-70
2022/07/03 19:57:23;;;;;;;5.30;1.60;;;25.80;54.90;;;;;;10350980;28;20221;-71
2022/07/03 20:02:24;;;;;;;3.47;1.50;;;25.60;55.70;;;;;;10328567;28;20601;-70
2022/07/03 20:07:25;;;;;;;3.80;1.37;;;25.40;56.60;;;;;;10350326;28;20422;-69
2022/07/03 20:12:29;;;;;;;5.60;1.80;;;25.20;57.40;;;;;;10311723;28;20280;-66
2022/07/03 20:17:31;;;;;;;6.27;1.47;;;25.10;59.90;;;;;;10331145;28;20217;-66
2022/07/03 20:22:32;;;;;;;4.80;1.60;;;25.10;59.70;;;;;;10344242;28;20262;-67
2022/07/03 20:27:32;;;;;;;3.30;1.20;;;25.10;59.10;;;;;;10316212;28;20238;-67
2022/07/03 20:32:36;;;;;;;3.43;1.40;;;25.00;59.20;;;;;;10344630;28;20325;-67
2022/07/03 20:37:36;;;;;;;2.83;1.33;;;24.90;59.60;;;;;;10353902;28;20221;-66
2022/07/03 20:42:39;;;;;;;3.43;1.30;;;24.80;59.30;;;;;;10335882;28;20724;-69
2022/07/03 20:47:40;;;;;;;2.70;1.27;;;24.60;60.00;;;;;;10338718;28;20268;-67
2022/07/03 20:52:54;;;;;;;3.23;1.40;;;24.40;60.90;;;;;;10357589;28;20222;-68
2022/07/03 20:57:55;;;;;;;2.97;1.30;;;24.30;61.80;;;;;;10322061;28;20701;-66
2022/07/03 21:02:55;;;;;;;3.87;1.40;;;24.00;62.60;;;;;;10349046;28;20219;-67
2022/07/03 21:07:56;;;;;;;4.83;1.20;;;24.00;65.00;;;;;;10347704;28;20268;-67
2022/07/03 21:12:56;;;;;;;2.67;1.30;;;24.10;64.40;;;;;;10345845;28;20225;-67
2022/07/03 21:18:00;;;;;;;2.20;1.50;;;24.20;63.80;;;;;;10344799;28;20223;-67
2022/07/03 21:23:00;;;;;;;3.63;1.00;;;24.10;63.60;;;;;;10348708;28;20226;-67
2022/07/03 21:28:01;;;;;;;3.60;1.27;;;23.90;63.60;;;;;;10332667;28;20761;-68
2022/07/03 21:33:02;;;;;;;3.90;1.30;;;23.80;64.60;;;;;;10343159;28;20261;-65
2022/07/03 21:38:03;;;;;;;4.03;1.37;;;23.70;65.00;;;;;;10329687;28;20225;-66
2022/07/03 21:43:03;;;;;;;2.57;1.20;;;23.60;65.20;;;;;;10340282;28;20286;-68
2022/07/03 21:48:04;;;;;;;1.33;0.97;;;23.40;65.20;;;;;;10354146;28;20239;-68
2022/07/03 21:53:05;;;;;;;2.87;0.90;;;23.00;66.90;;;;;;10331648;28;20610;-68
2022/07/03 21:58:06;;;;;;;3.23;1.20;;;22.70;67.90;;;;;;10336266;28;20280;-69
2022/07/03 22:03:07;;;;;;;1.50;1.07;;;22.60;69.60;;;;;;10348051;28;20304;-68
2022/07/03 22:08:08;;;;;;;3.77;1.00;;;22.50;69.20;;;;;;10331744;28;20271;-69
2022/07/03 22:13:09;;;;;;;1.43;1.03;;;22.40;69.60;;;;;;10346255;28;20249;-69
2022/07/03 22:18:09;;;;;;;5.37;1.57;;;22.30;70.00;;;;;;10330385;28;20223;-69
2022/07/03 22:23:10;;;;;;;3.10;1.27;;;22.30;70.40;;;;;;10343631;28;20704;-69
2022/07/03 22:28:11;;;;;;;4.27;1.43;;;22.30;70.40;;;;;;10323055;28;20227;-68
2022/07/03 22:33:11;;;;;;;5.97;1.50;;;22.20;69.20;;;;;;10349836;28;20763;-68
2022/07/03 22:38:12;;;;;;;2.23;1.30;;;22.20;68.90;;;;;;10345780;28;20212;-68
2022/07/03 22:43:12;;;;;;;3.43;1.40;;;22.10;68.80;;;;;;10331314;28;20885;-69
2022/07/03 22:48:13;;;;;;;4.10;1.27;;;22.00;69.00;;;;;;10343416;28;20214;-69
2022/07/03 22:53:14;;;;;;;3.77;1.60;;;22.10;69.40;;;;;;10330706;28;20230;-68
2022/07/03 22:58:14;;;;;;;2.17;1.10;;;22.00;69.30;;;;;;10342004;28;20229;-69
2022/07/03 23:03:17;;;;;;;5.63;1.10;;;22.00;69.60;;;;;;10329755;28;20228;-68
2022/07/03 23:08:22;;;;;;;2.73;1.20;;;21.90;69.20;;;;;;10333916;28;20218;-68
2022/07/03 23:13:27;;;;;;;1.93;1.20;;;21.90;69.20;;;;;;10337734;28;20229;-68
2022/07/03 23:18:27;;;;;;;2.30;1.20;;;21.90;70.00;;;;;;10335998;28;20308;-69
2022/07/03 23:23:28;;;;;;;2.83;1.43;;;21.80;69.10;;;;;;10326677;28;20312;-68
2022/07/03 23:28:30;;;;;;;1.60;1.10;;;21.80;69.60;;;;;;10332239;28;20318;-68
2022/07/03 23:33:31;;;;;;;2.63;1.30;;;21.80;69.70;;;;;;10318086;28;20229;-67
2022/07/03 23:38:32;;;;;;;3.60;1.00;;;21.80;69.90;;;;;;10344241;28;20268;-67
2022/07/03 23:43:33;;;;;;;3.23;1.17;;;21.70;70.00;;;;;;10343187;28;20239;-67
2022/07/03 23:53:55;;;;;;;2.07;1.20;;;21.70;70.50;;;;;;10339498;28;20234;-68
2022/07/03 23:58:55;;;;;;;2.20;1.17;;;21.70;70.00;;;;;;10336644;28;20226;-68
